createdAt,value
2018-05-17T00:03:11.161Z,96916.18
2018-05-17T00:08:05.323Z,96916.86
2018-05-17T00:13:00.020Z,96923.47
2018-05-17T00:17:53.894Z,96928.20
2018-05-17T00:22:48.201Z,96926.77
2018-05-17T00:27:42.031Z,96920.15
2018-05-17T00:32:35.772Z,96909.52
2018-05-17T00:37:29.645Z,96912.94
2018-05-17T00:42:23.333Z,96911.73
2018-05-17T00:47:16.966Z,96913.72
2018-05-17T00:52:11.438Z,96910.44
2018-05-17T00:57:06.077Z,96899.58
2018-05-17T01:01:59.858Z,96912.52
2018-05-17T01:06:53.556Z,96918.61
2018-05-17T01:11:47.293Z,96915.50
2018-05-17T01:16:40.915Z,96912.58
2018-05-17T01:21:34.569Z,96912.83
2018-05-17T01:26:28.407Z,96913.55
2018-05-17T01:31:22.097Z,96914.61
2018-05-17T01:36:16.494Z,96909.54
2018-05-17T01:41:14.838Z,96909.95
2018-05-17T01:46:08.549Z,96915.33
2018-05-17T01:51:02.445Z,96907.59
2018-05-17T01:55:56.928Z,96907.46
2018-05-17T02:00:50.613Z,96904.35
2018-05-17T02:05:44.268Z,96898.94
2018-05-17T02:10:38.688Z,96905.73
2018-05-17T02:15:33.304Z,96909.30
2018-05-17T02:20:27.595Z,96906.73
2018-05-17T02:25:21.323Z,96897.84
2018-05-17T02:30:15.114Z,96896.09
2018-05-17T02:35:08.929Z,96904.73
2018-05-17T02:40:02.690Z,96916.88
2018-05-17T02:44:56.556Z,96911.74
2018-05-17T02:49:50.373Z,96923.73
2018-05-17T02:54:44.132Z,96918.13
2018-05-17T02:59:38.022Z,96909.64
2018-05-17T03:04:32.060Z,96910.34
2018-05-17T03:09:25.804Z,96909.20
2018-05-17T03:14:20.348Z,96907.43
2018-05-17T03:19:15.329Z,96909.22
2018-05-17T03:24:09.094Z,96906.33
2018-05-17T03:29:02.822Z,96906.05
2018-05-17T03:33:56.563Z,96902.95
2018-05-17T03:38:51.099Z,96903.09
2018-05-17T03:43:44.869Z,96904.47
2018-05-17T03:48:38.625Z,96898.52
2018-05-17T03:53:32.621Z,96899.44
2018-05-17T03:58:26.473Z,96904.45
2018-05-17T04:03:37.600Z,96901.83
2018-05-17T04:08:31.348Z,96897.38
2018-05-17T04:13:25.238Z,96900.57
2018-05-17T04:18:19.041Z,96905.75
2018-05-17T04:23:12.947Z,96904.55
2018-05-17T04:28:08.438Z,96913.30
2018-05-17T04:33:02.249Z,96926.20
2018-05-17T04:37:56.082Z,96929.92
2018-05-17T04:42:49.865Z,96934.63
2018-05-17T04:47:43.619Z,96934.08
2018-05-17T04:52:37.951Z,96934.56
2018-05-17T04:57:32.871Z,96933.45
2018-05-17T05:02:27.013Z,96934.06
2018-05-17T05:07:20.629Z,96947.66
2018-05-17T05:12:14.872Z,96951.00
2018-05-17T05:17:08.922Z,96959.45
2018-05-17T05:22:05.980Z,96954.63
2018-05-17T05:27:00.111Z,96960.06
2018-05-17T05:31:55.469Z,96956.12
2018-05-17T05:36:49.113Z,96951.39
2018-05-17T05:41:42.740Z,96952.03
2018-05-17T05:46:37.147Z,96951.39
2018-05-17T05:51:35.457Z,96943.83
2018-05-17T05:56:30.642Z,96949.16
2018-05-17T06:01:24.308Z,96949.61
2018-05-17T06:06:18.003Z,96947.37
2018-05-17T06:11:12.035Z,96958.45
2018-05-17T06:16:07.876Z,96953.52
2018-05-17T06:21:02.937Z,96951.74
2018-05-17T06:25:57.223Z,96959.59
2018-05-17T06:36:15.045Z,96960.59
2018-05-17T06:41:08.904Z,96964.80
2018-05-17T06:46:03.267Z,96960.73
2018-05-17T06:50:57.051Z,96969.63
2018-05-17T06:55:50.698Z,96969.75
2018-05-17T07:00:45.046Z,96976.21
2018-05-17T07:05:39.443Z,96980.70
2018-05-17T07:10:33.000Z,96981.48
2018-05-17T07:15:26.593Z,96983.17
2018-05-17T07:20:20.228Z,96986.79
2018-05-17T07:25:14.246Z,96988.02
2018-05-17T07:30:13.135Z,96988.02
2018-05-17T07:35:08.902Z,96988.66
2018-05-17T07:40:04.836Z,96994.92
2018-05-17T07:44:59.358Z,96997.80
2018-05-17T07:49:54.471Z,96999.57
2018-05-17T07:54:52.038Z,96998.87
2018-05-17T07:59:48.043Z,96998.81
2018-05-17T08:04:42.057Z,97004.58
2018-05-17T08:09:35.615Z,97004.92
2018-05-17T08:14:29.985Z,97010.78
2018-05-17T08:19:23.728Z,97016.11
2018-05-17T08:24:18.127Z,97022.09
2018-05-17T08:29:14.034Z,97021.20
2018-05-17T08:34:08.244Z,97021.36
2018-05-17T08:39:06.054Z,97024.53
2018-05-17T08:44:01.027Z,97023.30
2018-05-17T08:48:54.818Z,97027.81
2018-05-17T08:53:51.674Z,97031.30
2018-05-17T08:58:45.399Z,97025.64
2018-05-17T09:03:43.747Z,97036.05
2018-05-17T09:08:39.512Z,97034.10
2018-05-17T09:13:33.965Z,97036.09
2018-05-17T09:18:29.884Z,97043.08
2018-05-17T09:23:24.233Z,97041.30
2018-05-17T09:28:18.445Z,97043.86
2018-05-17T09:33:12.930Z,97044.92
2018-05-17T09:38:08.490Z,97047.14
2018-05-17T09:43:02.587Z,97049.30
2018-05-17T09:47:58.032Z,97047.89
2018-05-17T09:52:52.208Z,97040.48
2018-05-17T09:57:52.394Z,97051.39
2018-05-17T10:02:49.046Z,97046.70
2018-05-17T10:07:43.691Z,97067.69
2018-05-17T10:12:38.130Z,97070.72
2018-05-17T10:17:39.027Z,97065.58
2018-05-17T10:22:41.984Z,97075.40
2018-05-17T10:27:45.978Z,97080.91
2018-05-17T10:32:40.030Z,97085.15
2018-05-17T10:37:36.044Z,97082.32
2018-05-17T10:42:29.706Z,97083.16
2018-05-17T10:47:23.248Z,97084.17
2018-05-17T10:52:20.451Z,97081.59
2018-05-17T10:57:14.849Z,97088.01
2018-05-17T11:02:08.541Z,97089.20
2018-05-17T11:07:03.229Z,97091.39
2018-05-17T11:11:57.045Z,97085.78
2018-05-17T11:16:56.850Z,97092.97
2018-05-17T11:21:51.958Z,97094.92
2018-05-17T11:26:47.746Z,97091.56
2018-05-17T11:31:42.622Z,97091.97
2018-05-17T11:36:37.289Z,97082.89
2018-05-17T11:41:32.053Z,97090.89
2018-05-17T11:46:25.633Z,97087.09
2018-05-17T11:51:19.221Z,97089.13
2018-05-17T11:56:14.052Z,97097.25
2018-05-17T12:01:08.874Z,97094.17
2018-05-17T12:06:05.032Z,97087.95
2018-05-17T12:10:58.747Z,97078.08
2018-05-17T12:15:53.641Z,97086.03
2018-05-17T12:20:47.247Z,97086.98
2018-05-17T12:25:42.371Z,97077.66
2018-05-17T12:30:37.852Z,97081.35
2018-05-17T12:35:36.461Z,97084.19
2018-05-17T12:40:37.840Z,97077.31
2018-05-17T12:45:34.521Z,97074.41
2018-05-17T12:50:29.182Z,97077.09
2018-05-17T12:55:23.488Z,97077.32
2018-05-17T13:00:17.981Z,97074.79
2018-05-17T13:05:25.747Z,97076.38
2018-05-17T13:10:19.997Z,97077.23
2018-05-17T13:15:13.580Z,97071.70
2018-05-17T13:20:07.151Z,97068.39
2018-05-17T13:25:01.237Z,97064.88
2018-05-17T13:29:55.149Z,97068.09
2018-05-17T13:34:49.031Z,97072.27
2018-05-17T13:39:42.914Z,97063.12
2018-05-17T13:44:36.460Z,97069.61
2018-05-17T13:49:30.343Z,97060.40
2018-05-17T13:54:33.909Z,97065.01
2018-05-17T13:59:29.530Z,97069.70
2018-05-17T14:04:23.208Z,97073.54
2018-05-17T14:09:20.779Z,97080.52
2018-05-17T14:14:18.549Z,97080.27
2018-05-17T14:19:13.357Z,97082.89
2018-05-17T14:24:06.975Z,97080.34
2018-05-17T14:29:01.280Z,97082.76
2018-05-17T14:33:54.910Z,97076.72
2018-05-17T14:38:48.562Z,97082.95
2018-05-17T14:52:51.075Z,97087.94
2018-05-17T14:57:44.594Z,97088.20
2018-05-17T15:02:38.145Z,97077.42
2018-05-17T15:07:32.023Z,97074.86
2018-05-17T15:12:25.600Z,97076.86
2018-05-17T15:17:21.514Z,97069.36
2018-05-17T15:22:15.291Z,97068.33
2018-05-17T15:27:08.970Z,97070.52
2018-05-17T15:32:02.934Z,97069.70
2018-05-17T15:36:59.036Z,97074.37
2018-05-17T15:41:53.199Z,97070.39
2018-05-17T15:46:47.492Z,97077.83
2018-05-17T15:51:41.424Z,97075.08
2018-05-17T15:56:35.322Z,97077.06
2018-05-17T16:01:29.678Z,97075.97
2018-05-17T16:06:23.145Z,97068.00
2018-05-17T16:11:17.431Z,97078.09
2018-05-17T16:16:11.657Z,97081.81
2018-05-17T16:21:05.934Z,97086.05
2018-05-17T16:26:00.123Z,97084.36
2018-05-17T16:30:53.582Z,97080.36
2018-05-17T16:35:47.027Z,97082.12
2018-05-17T16:40:41.212Z,97083.44
2018-05-17T16:45:35.783Z,97090.08
2018-05-17T16:50:29.209Z,97089.41
2018-05-17T16:55:22.631Z,97092.83
2018-05-17T17:00:17.268Z,97096.67
2018-05-17T17:05:11.724Z,97099.87
2018-05-17T17:10:05.125Z,97097.36
2018-05-17T17:14:58.617Z,97106.41
2018-05-17T17:19:52.803Z,97108.33
2018-05-17T17:24:46.249Z,97105.25
2018-05-17T17:29:39.678Z,97111.59
2018-05-17T17:34:33.353Z,97113.83
2018-05-17T17:39:27.006Z,97118.88
2018-05-17T17:44:21.258Z,97116.70
2018-05-17T17:49:14.709Z,97123.33
2018-05-17T17:54:08.549Z,97115.70
2018-05-17T17:59:02.318Z,97113.40
2018-05-17T18:03:56.527Z,97127.77
2018-05-17T18:08:49.973Z,97124.30
2018-05-17T18:13:43.429Z,97126.31
2018-05-17T18:18:37.052Z,97128.39
2018-05-17T18:23:38.643Z,97139.08
2018-05-17T18:28:33.562Z,97146.33
2018-05-17T18:33:26.999Z,97150.35
2018-05-17T18:38:20.462Z,97148.55
2018-05-17T18:43:13.961Z,97155.22
2018-05-17T18:48:07.641Z,97160.28
2018-05-17T18:53:01.236Z,97160.55
2018-05-17T18:57:54.733Z,97167.77
2018-05-17T19:02:48.543Z,97178.69
2018-05-17T19:07:42.047Z,97174.62
2018-05-17T19:12:35.644Z,97185.58
2018-05-17T19:17:29.095Z,97192.12
2018-05-17T19:22:23.547Z,97194.77
2018-05-17T19:27:17.003Z,97202.23
2018-05-17T19:32:10.468Z,97206.26
2018-05-17T19:37:04.440Z,97208.98
2018-05-17T19:41:57.902Z,97208.64
2018-05-17T19:46:51.393Z,97220.33
2018-05-17T19:51:44.871Z,97226.94
2018-05-17T19:56:38.295Z,97225.84
2018-05-17T20:01:32.597Z,97228.58
2018-05-17T20:06:26.481Z,97234.74
2018-05-17T20:11:20.728Z,97238.91
2018-05-17T20:16:14.206Z,97239.00
2018-05-17T20:21:07.695Z,97240.98
2018-05-17T20:26:01.247Z,97239.84
2018-05-17T20:30:55.516Z,97242.80
2018-05-17T20:35:48.937Z,97236.66
2018-05-17T20:40:42.439Z,97239.23
2018-05-17T20:45:35.889Z,97239.41
2018-05-17T20:50:29.734Z,97238.41
2018-05-17T20:55:23.915Z,97235.20
2018-05-17T21:00:17.332Z,97238.88
2018-05-17T21:05:10.973Z,97236.08
2018-05-17T21:10:04.566Z,97230.81
2018-05-17T21:14:58.185Z,97230.61
2018-05-17T21:19:51.634Z,97224.25
2018-05-17T21:24:45.867Z,97225.69
2018-05-17T21:29:39.349Z,97233.55
2018-05-17T21:34:33.543Z,97239.42
2018-05-17T21:39:27.827Z,97231.76
2018-05-17T21:44:21.654Z,97233.67
2018-05-17T21:49:15.155Z,97234.13
2018-05-17T21:54:08.600Z,97226.73
2018-05-17T21:59:02.038Z,97228.17
2018-05-17T22:03:55.586Z,97225.81
2018-05-17T22:08:49.129Z,97227.59
2018-05-17T22:13:42.578Z,97231.42
2018-05-17T22:18:36.074Z,97235.49
2018-05-17T22:23:30.420Z,97243.86
2018-05-17T22:28:23.935Z,97234.99
2018-05-17T22:33:17.406Z,97241.80
2018-05-17T22:38:10.839Z,97233.05
2018-05-17T22:43:04.288Z,97234.67
2018-05-17T22:47:57.732Z,97228.55
2018-05-17T22:52:51.176Z,97228.80
2018-05-17T22:58:02.188Z,97228.39
2018-05-17T23:02:56.350Z,97229.16
2018-05-17T23:07:51.529Z,97225.38
2018-05-17T23:12:44.937Z,97229.48
2018-05-17T23:17:38.362Z,97226.47
2018-05-17T23:22:38.191Z,97219.57
2018-05-17T23:27:31.601Z,97223.41
2018-05-17T23:32:25.840Z,97224.56
2018-05-17T23:37:21.203Z,97222.86
2018-05-17T23:42:14.704Z,97221.87
2018-05-17T23:47:08.982Z,97217.80
